createdAt,value
2023-05-10T00:00:25.324Z,26.18
2023-05-10T00:01:25.337Z,26.15
2023-05-10T00:02:25.431Z,26.15
2023-05-10T00:03:25.485Z,26.15
2023-05-10T00:04:25.432Z,26.15
2023-05-10T00:05:25.466Z,26.14
2023-05-10T00:06:25.502Z,26.17
2023-05-10T00:07:25.548Z,26.14
2023-05-10T00:08:25.600Z,26.14
2023-05-10T00:09:25.628Z,26.14
2023-05-10T00:10:25.668Z,26.15
2023-05-10T00:11:25.708Z,26.14
2023-05-10T00:12:25.770Z,26.14
2023-05-10T00:13:25.996Z,26.13
2023-05-10T00:14:25.815Z,26.14
2023-05-10T00:15:25.858Z,26.13
2023-05-10T00:16:25.987Z,26.13
2023-05-10T00:17:25.969Z,26.09
2023-05-10T00:18:25.968Z,26.13
2023-05-10T00:19:26.003Z,26.13
2023-05-10T00:20:26.045Z,26.13
2023-05-10T00:21:26.090Z,26.11
2023-05-10T00:22:26.137Z,26.11
2023-05-10T00:23:26.172Z,26.11
2023-05-10T00:24:26.221Z,26.09
2023-05-10T00:25:26.236Z,26.08
2023-05-10T00:26:26.275Z,26.11
2023-05-10T00:27:26.317Z,26.09
2023-05-10T00:28:26.367Z,26.09
2023-05-10T00:29:26.423Z,26.08
2023-05-10T00:30:26.450Z,26.09
2023-05-10T00:31:26.519Z,26.09
2023-05-10T00:32:26.557Z,26.09
2023-05-10T00:33:26.607Z,26.09
2023-05-10T00:34:26.604Z,26.09
2023-05-10T00:35:26.646Z,26.11
2023-05-10T00:36:26.696Z,26.11
2023-05-10T00:37:26.745Z,26.08
2023-05-10T00:38:26.792Z,26.08
2023-05-10T00:39:26.819Z,26.09
2023-05-10T00:40:26.862Z,26.08
2023-05-10T00:41:26.912Z,26.09
2023-05-10T00:42:26.949Z,26.08
2023-05-10T00:43:26.997Z,26.09
2023-05-10T00:44:27.035Z,26.07
2023-05-10T00:45:27.115Z,26.07
2023-05-10T00:46:27.165Z,26.08
2023-05-10T00:47:27.223Z,26.11
2023-05-10T00:48:27.213Z,26.08
2023-05-10T00:49:27.259Z,26.07
2023-05-10T00:50:27.298Z,26.07
2023-05-10T00:51:27.334Z,26.07
2023-05-10T00:52:27.381Z,26.05
2023-05-10T00:53:27.428Z,26.07
2023-05-10T00:54:27.463Z,26.05
2023-05-10T00:55:27.515Z,26.07
2023-05-10T00:56:27.544Z,26.08
2023-05-10T00:57:27.576Z,26.08
2023-05-10T00:58:27.624Z,26.04
2023-05-10T00:59:27.675Z,26.05
2023-05-10T01:00:27.706Z,26.04
2023-05-10T01:01:27.844Z,26.07
2023-05-10T01:02:27.894Z,26.05
2023-05-10T01:03:27.863Z,26.07
2023-05-10T01:04:27.930Z,26.05
2023-05-10T01:05:27.929Z,26.04
2023-05-10T01:06:27.981Z,26.04
2023-05-10T01:07:28.027Z,26.04
2023-05-10T01:08:28.069Z,26.07
2023-05-10T01:09:28.114Z,26.05
2023-05-10T01:10:28.160Z,26.03
2023-05-10T01:11:28.209Z,26.05
2023-05-10T01:12:28.279Z,26.05
2023-05-10T01:13:28.316Z,26.05
2023-05-10T01:14:28.341Z,26.05
2023-05-10T01:15:28.386Z,26.07
2023-05-10T01:16:28.494Z,26.05
2023-05-10T01:17:28.554Z,26.04
2023-05-10T01:18:28.513Z,26.04
2023-05-10T01:19:28.561Z,26.05
2023-05-10T01:20:28.607Z,26.05
2023-05-10T01:21:28.646Z,26.05
2023-05-10T01:22:28.693Z,26.05
2023-05-10T01:23:28.734Z,26.03
2023-05-10T01:24:28.783Z,26.04
2023-05-10T01:25:28.828Z,26.04
2023-05-10T01:26:28.851Z,26.04
2023-05-10T01:27:28.907Z,26.04
2023-05-10T01:28:28.942Z,26.03
2023-05-10T01:29:28.980Z,26.04
2023-05-10T01:30:29.025Z,26.04
2023-05-10T01:31:29.099Z,26.03
2023-05-10T01:32:29.143Z,26.01
2023-05-10T01:33:29.231Z,26.03
2023-05-10T01:34:29.218Z,26.04
2023-05-10T01:35:29.283Z,26.03
2023-05-10T01:36:29.304Z,26.03
2023-05-10T01:37:29.357Z,26.04
2023-05-10T01:38:29.406Z,26.03
2023-05-10T01:39:29.445Z,26.01
2023-05-10T01:40:29.491Z,26.03
2023-05-10T01:41:29.554Z,26.00
2023-05-10T01:42:29.596Z,26.01
2023-05-10T01:43:29.653Z,26.01
2023-05-10T01:44:29.693Z,26.01
2023-05-10T01:45:29.748Z,26.01
2023-05-10T01:46:29.827Z,26.03
2023-05-10T01:47:29.882Z,26.01
2023-05-10T01:48:29.873Z,26.01
2023-05-10T01:49:29.941Z,26.01
2023-05-10T01:50:29.971Z,26.01
2023-05-10T01:51:30.007Z,26.01
2023-05-10T01:52:30.060Z,26.03
2023-05-10T01:53:30.125Z,26.01
2023-05-10T01:54:30.184Z,26.01
2023-05-10T01:55:30.216Z,25.98
2023-05-10T01:56:30.249Z,26.01
2023-05-10T01:57:30.300Z,26.01
2023-05-10T01:58:30.350Z,26.00
2023-05-10T01:59:30.411Z,26.00
2023-05-10T02:00:30.482Z,26.01
2023-05-10T02:01:30.500Z,25.98
2023-05-10T02:02:30.648Z,25.98
2023-05-10T02:03:30.640Z,25.98
2023-05-10T02:04:30.700Z,26.00
2023-05-10T02:05:30.816Z,26.01
2023-05-10T02:06:30.765Z,26.00
2023-05-10T02:07:30.811Z,25.98
2023-05-10T02:08:30.859Z,26.00
2023-05-10T02:09:30.919Z,26.00
2023-05-10T02:10:30.954Z,25.98
2023-05-10T02:11:31.010Z,26.00
2023-05-10T02:12:31.089Z,25.98
2023-05-10T02:13:31.146Z,26.00
2023-05-10T02:14:31.142Z,25.97
2023-05-10T02:15:31.189Z,25.98
2023-05-10T02:16:31.238Z,25.98
2023-05-10T02:17:31.288Z,25.98
2023-05-10T02:18:31.332Z,25.97
2023-05-10T02:19:31.377Z,25.98
2023-05-10T02:20:31.416Z,26.00
2023-05-10T02:21:31.495Z,25.98
2023-05-10T02:22:31.529Z,25.97
2023-05-10T02:23:31.578Z,26.00
2023-05-10T02:24:31.644Z,25.97
2023-05-10T02:25:31.680Z,25.98
2023-05-10T02:26:31.722Z,25.97
2023-05-10T02:27:31.797Z,26.00
2023-05-10T02:28:31.827Z,25.98
2023-05-10T02:29:31.889Z,25.97
2023-05-10T02:30:31.935Z,25.98
2023-05-10T02:31:32.045Z,25.98
2023-05-10T02:32:32.062Z,25.98
2023-05-10T02:33:32.069Z,25.97
2023-05-10T02:34:32.127Z,25.97
2023-05-10T02:35:32.168Z,25.98
2023-05-10T02:36:32.196Z,26.00
2023-05-10T02:37:32.326Z,25.98
2023-05-10T02:38:32.314Z,25.97
2023-05-10T02:39:32.317Z,26.00
2023-05-10T02:40:32.365Z,25.98
2023-05-10T02:41:32.410Z,25.97
2023-05-10T02:42:32.460Z,25.97
2023-05-10T02:43:32.503Z,25.96
2023-05-10T02:44:32.565Z,25.96
2023-05-10T02:45:32.588Z,25.96
2023-05-10T02:46:32.696Z,25.98
2023-05-10T02:47:32.696Z,25.96
2023-05-10T02:48:32.722Z,25.97
2023-05-10T02:49:32.760Z,25.97
2023-05-10T02:50:32.801Z,25.97
2023-05-10T02:51:32.854Z,25.94
2023-05-10T02:52:32.889Z,25.98
2023-05-10T02:53:33.018Z,25.96
2023-05-10T02:54:33.000Z,25.96
2023-05-10T02:55:33.045Z,25.97
2023-05-10T02:56:33.100Z,25.97
2023-05-10T02:57:33.142Z,25.97
2023-05-10T02:58:33.206Z,25.96
2023-05-10T02:59:33.237Z,25.96
2023-05-10T03:00:33.338Z,25.97
2023-05-10T03:01:33.365Z,25.96
2023-05-10T03:02:33.577Z,25.96
2023-05-10T03:03:33.434Z,25.93
2023-05-10T03:04:33.503Z,25.93
2023-05-10T03:05:33.530Z,25.96
2023-05-10T03:06:33.581Z,25.96
2023-05-10T03:07:33.624Z,25.93
2023-05-10T03:08:33.681Z,25.94
2023-05-10T03:09:33.753Z,25.94
2023-05-10T03:10:33.772Z,25.94
2023-05-10T03:11:33.815Z,25.96
2023-05-10T03:12:33.863Z,25.96
2023-05-10T03:13:33.990Z,25.94
2023-05-10T03:14:33.967Z,25.94
2023-05-10T03:15:34.011Z,25.94
2023-05-10T03:16:34.121Z,25.94
2023-05-10T03:17:34.146Z,25.94
2023-05-10T03:18:34.145Z,25.91
2023-05-10T03:19:34.208Z,25.93
2023-05-10T03:20:34.254Z,25.91
2023-05-10T03:21:34.304Z,25.91
2023-05-10T03:22:34.328Z,25.91
2023-05-10T03:23:34.386Z,25.91
2023-05-10T03:24:34.445Z,25.93
2023-05-10T03:25:34.525Z,25.93
2023-05-10T03:26:34.582Z,25.91
2023-05-10T03:27:34.611Z,25.91
2023-05-10T03:28:34.672Z,25.91
2023-05-10T03:29:34.730Z,25.90
2023-05-10T03:30:34.790Z,25.91
2023-05-10T03:31:34.837Z,25.94
2023-05-10T03:32:34.899Z,25.94
2023-05-10T03:33:34.919Z,25.90
2023-05-10T03:34:34.971Z,25.93
2023-05-10T03:35:35.018Z,25.91
2023-05-10T03:36:35.076Z,25.94
2023-05-10T03:37:35.138Z,25.91
2023-05-10T03:38:35.190Z,25.93
2023-05-10T03:39:35.248Z,25.91
2023-05-10T03:40:35.305Z,25.91
2023-05-10T03:41:35.388Z,25.91
2023-05-10T03:42:35.442Z,25.93
2023-05-10T03:43:35.483Z,25.93
2023-05-10T03:44:35.564Z,25.91
2023-05-10T03:45:35.629Z,25.91
2023-05-10T03:46:35.680Z,25.93
2023-05-10T03:47:35.775Z,25.90
2023-05-10T03:48:35.815Z,25.90
2023-05-10T03:49:35.862Z,25.88
2023-05-10T03:50:35.941Z,25.90
2023-05-10T03:51:35.974Z,25.91
2023-05-10T03:52:36.041Z,25.90
2023-05-10T03:53:36.094Z,25.91
2023-05-10T03:54:36.148Z,25.91
2023-05-10T03:55:36.202Z,25.90
2023-05-10T03:56:36.266Z,25.90
2023-05-10T03:57:36.347Z,25.93
2023-05-10T03:58:36.388Z,25.91
2023-05-10T03:59:36.444Z,25.91
2023-05-10T04:00:36.498Z,25.90
2023-05-10T04:01:36.634Z,25.90
2023-05-10T04:02:36.758Z,25.91
2023-05-10T04:03:36.714Z,25.90
2023-05-10T04:04:36.741Z,25.90
2023-05-10T04:05:36.822Z,25.88
2023-05-10T04:06:36.908Z,25.88
2023-05-10T04:07:36.906Z,25.90
2023-05-10T04:08:36.954Z,25.90
2023-05-10T04:09:37.009Z,25.90
2023-05-10T04:10:37.070Z,25.88
2023-05-10T04:11:37.117Z,25.88
2023-05-10T04:12:37.175Z,25.88
2023-05-10T04:13:37.263Z,25.88
2023-05-10T04:14:37.296Z,25.88
2023-05-10T04:15:37.344Z,25.88
2023-05-10T04:16:37.412Z,25.87
2023-05-10T04:17:37.518Z,25.88
2023-05-10T04:18:37.513Z,25.87
2023-05-10T04:19:37.560Z,25.88
2023-05-10T04:20:37.650Z,25.88
2023-05-10T04:21:37.670Z,25.91
2023-05-10T04:22:37.723Z,25.88
2023-05-10T04:23:37.790Z,25.87
2023-05-10T04:24:37.851Z,25.88
2023-05-10T04:25:37.887Z,25.87
2023-05-10T04:26:37.961Z,25.90
2023-05-10T04:27:38.007Z,25.87
2023-05-10T04:28:38.080Z,25.88
2023-05-10T04:29:38.162Z,25.86
2023-05-10T04:30:38.199Z,25.87
2023-05-10T04:31:38.245Z,25.87
2023-05-10T04:32:38.378Z,25.86
2023-05-10T04:33:38.373Z,25.87
2023-05-10T04:34:38.422Z,25.87
2023-05-10T04:35:38.483Z,25.86
2023-05-10T04:36:38.543Z,25.87
2023-05-10T04:37:38.651Z,25.88
2023-05-10T04:38:38.654Z,25.86
2023-05-10T04:39:40.295Z,25.86
2023-05-10T04:40:38.706Z,25.87
2023-05-10T04:41:38.705Z,25.86
2023-05-10T04:42:38.706Z,25.87
2023-05-10T04:43:38.691Z,25.86
2023-05-10T04:44:38.689Z,25.86
2023-05-10T04:45:38.700Z,25.87
2023-05-10T04:46:38.711Z,25.87
2023-05-10T04:47:38.697Z,25.83
2023-05-10T04:48:38.685Z,25.87
2023-05-10T04:49:38.689Z,25.87
2023-05-10T04:50:38.674Z,25.87
2023-05-10T04:51:38.666Z,25.86
2023-05-10T04:52:38.676Z,25.86
2023-05-10T04:53:38.666Z,25.86
2023-05-10T04:54:38.701Z,25.86
2023-05-10T04:55:38.679Z,25.87
2023-05-10T04:56:38.674Z,25.86
2023-05-10T04:57:38.698Z,25.86
2023-05-10T04:58:37.759Z,25.84
2023-05-10T04:59:38.929Z,25.87
2023-05-10T05:00:38.874Z,25.86
2023-05-10T05:01:38.980Z,25.84
2023-05-10T05:02:39.058Z,25.86
2023-05-10T05:03:39.168Z,25.86
2023-05-10T05:04:39.118Z,25.84
2023-05-10T05:05:39.167Z,25.86
2023-05-10T05:06:39.253Z,25.87
2023-05-10T05:07:39.285Z,25.84
2023-05-10T05:08:39.346Z,25.86
2023-05-10T05:09:39.414Z,25.84
2023-05-10T05:10:39.474Z,25.84
2023-05-10T05:11:39.544Z,25.84
2023-05-10T05:12:39.591Z,25.83
2023-05-10T05:13:39.656Z,25.86
2023-05-10T05:14:39.719Z,25.86
2023-05-10T05:15:39.765Z,25.84
2023-05-10T05:16:39.867Z,25.86
2023-05-10T05:17:40.185Z,25.83
2023-05-10T05:18:39.952Z,25.84
2023-05-10T05:19:40.424Z,25.86
2023-05-10T05:20:40.412Z,25.84
2023-05-10T05:21:40.124Z,25.84
2023-05-10T05:22:40.176Z,25.84
2023-05-10T05:23:40.239Z,25.84
2023-05-10T05:24:40.292Z,25.86
2023-05-10T05:25:40.380Z,25.86
2023-05-10T05:26:40.449Z,25.83
2023-05-10T05:27:40.493Z,25.84
2023-05-10T05:28:40.560Z,25.84
2023-05-10T05:29:40.617Z,25.86
2023-05-10T05:30:40.676Z,25.83
2023-05-10T05:31:40.746Z,25.84
2023-05-10T05:32:40.858Z,25.83
2023-05-10T05:33:40.893Z,25.83
2023-05-10T05:34:40.932Z,25.84
2023-05-10T05:35:40.991Z,25.84
2023-05-10T05:36:41.066Z,25.83
2023-05-10T05:37:41.118Z,25.81
2023-05-10T05:38:41.194Z,25.84
2023-05-10T05:39:41.251Z,25.83
2023-05-10T05:40:41.298Z,25.84
2023-05-10T05:41:41.373Z,25.86
2023-05-10T05:42:41.427Z,25.83
2023-05-10T05:43:41.497Z,25.84
2023-05-10T05:44:41.927Z,25.83
2023-05-10T05:45:41.650Z,25.83
2023-05-10T05:46:41.684Z,25.84
2023-05-10T05:47:41.837Z,25.83
2023-05-10T05:48:41.796Z,25.84
2023-05-10T05:49:41.972Z,25.81
2023-05-10T05:50:42.427Z,25.83
2023-05-10T05:51:41.992Z,25.84
2023-05-10T05:52:42.053Z,25.86
2023-05-10T05:53:42.111Z,25.84
2023-05-10T05:54:42.432Z,25.83
2023-05-10T05:55:42.242Z,25.83
2023-05-10T05:56:42.298Z,25.81
2023-05-10T05:57:42.432Z,25.81
2023-05-10T05:58:42.443Z,25.83
2023-05-10T05:59:42.964Z,25.81
2023-05-10T06:00:42.575Z,25.83
2023-05-10T06:01:43.661Z,25.81
2023-05-10T06:02:43.534Z,25.83
2023-05-10T06:03:46.008Z,25.83
2023-05-10T06:04:50.396Z,25.83
2023-05-10T06:05:42.771Z,25.83
2023-05-10T06:06:42.737Z,25.81
2023-05-10T06:07:42.973Z,25.83
2023-05-10T06:08:42.729Z,25.84
2023-05-10T06:09:42.736Z,25.86
2023-05-10T06:10:42.737Z,25.83
2023-05-10T06:11:42.737Z,25.81
2023-05-10T06:12:42.968Z,25.83
2023-05-10T06:13:42.716Z,25.83
2023-05-10T06:14:42.939Z,25.83
2023-05-10T06:15:42.716Z,25.83
2023-05-10T06:16:42.760Z,25.84
2023-05-10T06:17:42.769Z,25.84
2023-05-10T06:18:42.691Z,25.86
2023-05-10T06:19:42.687Z,25.83
2023-05-10T06:20:42.716Z,25.84
2023-05-10T06:21:42.681Z,25.84
2023-05-10T06:22:42.685Z,25.84
2023-05-10T06:23:42.674Z,25.83
2023-05-10T06:24:42.953Z,25.83
2023-05-10T06:25:42.689Z,25.84
2023-05-10T06:26:42.688Z,25.84
2023-05-10T06:27:42.760Z,25.83
2023-05-10T06:28:42.822Z,25.83
2023-05-10T06:29:42.948Z,25.83
2023-05-10T06:30:42.964Z,25.83
2023-05-10T06:31:43.077Z,25.84
2023-05-10T06:32:43.093Z,25.84
2023-05-10T06:33:43.147Z,25.86
2023-05-10T06:34:43.448Z,25.83
2023-05-10T06:35:43.272Z,25.86
2023-05-10T06:36:43.450Z,25.86
2023-05-10T06:37:43.395Z,25.86
2023-05-10T06:38:43.949Z,25.87
2023-05-10T06:39:43.516Z,25.86
2023-05-10T06:40:43.571Z,25.87
2023-05-10T06:41:43.645Z,25.86
2023-05-10T06:42:43.704Z,25.86
2023-05-10T06:43:43.769Z,25.88
2023-05-10T06:44:43.952Z,25.87
2023-05-10T06:45:43.937Z,25.84
2023-05-10T06:46:44.077Z,25.87
2023-05-10T06:47:44.058Z,25.88
2023-05-10T06:48:44.455Z,25.88
2023-05-10T06:49:44.129Z,25.87
2023-05-10T06:50:44.472Z,25.90
2023-05-10T06:51:44.236Z,25.88
2023-05-10T06:52:44.320Z,25.87
2023-05-10T06:53:44.361Z,25.90
2023-05-10T06:54:44.468Z,25.88
2023-05-10T06:55:44.491Z,25.91
2023-05-10T06:56:44.549Z,25.90
2023-05-10T06:57:44.607Z,25.87
2023-05-10T06:58:44.680Z,25.90
2023-05-10T06:59:44.723Z,25.93
2023-05-10T07:00:48.057Z,25.93
2023-05-10T07:01:44.857Z,25.90
2023-05-10T07:02:44.809Z,25.91
2023-05-10T07:03:45.010Z,25.90
2023-05-10T07:04:45.025Z,25.90
2023-05-10T07:05:44.791Z,25.91
2023-05-10T07:06:44.738Z,25.90
2023-05-10T07:07:44.734Z,25.91
2023-05-10T07:08:44.780Z,25.94
2023-05-10T07:09:44.736Z,25.91
2023-05-10T07:10:44.726Z,25.94
2023-05-10T07:11:44.717Z,25.91
2023-05-10T07:12:44.806Z,25.93
2023-05-10T07:13:44.757Z,25.94
2023-05-10T07:14:44.970Z,25.91
2023-05-10T07:15:44.689Z,25.96
2023-05-10T07:16:46.038Z,25.94
2023-05-10T07:17:46.098Z,25.94
2023-05-10T07:18:44.862Z,25.94
2023-05-10T07:19:44.932Z,25.97
2023-05-10T07:20:45.040Z,25.97
2023-05-10T07:21:45.021Z,25.96
2023-05-10T07:22:45.079Z,25.97
2023-05-10T07:23:45.355Z,25.97
2023-05-10T07:24:45.312Z,25.96
2023-05-10T07:25:45.226Z,25.98
2023-05-10T07:26:45.474Z,25.97
2023-05-10T07:27:45.437Z,26.00
2023-05-10T07:28:45.493Z,26.00
2023-05-10T07:29:45.419Z,26.00
2023-05-10T07:30:45.604Z,25.98
2023-05-10T07:31:46.058Z,26.00
2023-05-10T07:32:47.538Z,26.00
2023-05-10T07:33:45.565Z,26.05
2023-05-10T07:34:46.010Z,26.04
2023-05-10T07:35:45.576Z,26.03
2023-05-10T07:36:45.605Z,26.03
2023-05-10T07:37:45.559Z,26.05
2023-05-10T07:38:45.532Z,26.03
2023-05-10T07:39:46.014Z,26.05
2023-05-10T07:40:45.557Z,26.08
2023-05-10T07:41:45.504Z,26.09
2023-05-10T07:42:45.574Z,26.08
2023-05-10T07:43:45.584Z,26.07
2023-05-10T07:44:46.503Z,26.09
2023-05-10T07:45:45.713Z,26.13
2023-05-10T07:46:45.686Z,26.14
2023-05-10T07:47:45.831Z,26.15
2023-05-10T07:48:45.790Z,26.15
2023-05-10T07:49:45.984Z,26.18
2023-05-10T07:50:45.881Z,26.17
2023-05-10T07:51:46.160Z,26.20
2023-05-10T07:52:45.935Z,26.22
2023-05-10T07:53:45.932Z,26.24
2023-05-10T07:54:46.007Z,26.25
2023-05-10T07:55:53.427Z,26.27
2023-05-10T07:57:46.320Z,26.31
2023-05-10T07:58:45.952Z,26.35
2023-05-10T07:59:45.973Z,26.36
2023-05-10T08:00:45.933Z,26.36
2023-05-10T08:01:46.070Z,26.41
2023-05-10T08:02:45.996Z,26.43
2023-05-10T08:03:47.032Z,26.46
2023-05-10T08:04:45.986Z,26.46
2023-05-10T08:05:45.853Z,26.49
2023-05-10T08:06:46.078Z,26.51
2023-05-10T08:07:45.843Z,26.53
2023-05-10T08:08:46.798Z,26.56
2023-05-10T08:09:45.850Z,26.55
2023-05-10T08:10:45.781Z,26.59
2023-05-10T08:11:45.833Z,26.60
2023-05-10T08:12:45.792Z,26.64
2023-05-10T08:13:46.746Z,26.66
2023-05-10T08:14:45.989Z,26.68
2023-05-10T08:15:45.744Z,26.69
2023-05-10T08:16:45.693Z,26.73
2023-05-10T08:17:45.740Z,26.75
2023-05-10T08:18:45.762Z,26.78
2023-05-10T08:19:45.981Z,26.78
2023-05-10T08:20:45.653Z,26.82
2023-05-10T08:21:45.614Z,26.83
2023-05-10T08:22:45.660Z,26.85
2023-05-10T08:23:45.575Z,26.87
2023-05-10T08:24:45.984Z,26.90
2023-05-10T08:25:45.568Z,26.87
2023-05-10T08:26:45.778Z,26.94
2023-05-10T08:27:45.539Z,26.93
2023-05-10T08:28:45.483Z,26.94
2023-05-10T08:29:50.171Z,26.97
2023-05-10T08:30:45.478Z,26.98
2023-05-10T08:31:45.515Z,26.98
2023-05-10T08:32:45.418Z,27.00
2023-05-10T08:33:45.397Z,27.00
2023-05-10T08:34:45.547Z,27.04
2023-05-10T08:35:45.330Z,27.03
2023-05-10T08:36:45.311Z,27.04
2023-05-10T08:37:45.303Z,27.06
2023-05-10T08:38:45.301Z,27.06
2023-05-10T08:39:46.525Z,27.07
2023-05-10T08:41:17.024Z,27.10
2023-05-10T08:41:45.492Z,27.11
2023-05-10T08:42:45.179Z,27.11
2023-05-10T08:43:48.432Z,27.11
2023-05-10T08:44:46.293Z,27.11
2023-05-10T08:45:45.521Z,27.14
2023-05-10T08:46:45.216Z,27.14
2023-05-10T08:47:45.118Z,27.13
2023-05-10T08:48:45.046Z,27.14
2023-05-10T08:49:45.513Z,27.14
2023-05-10T08:50:45.523Z,27.13
2023-05-10T08:51:44.988Z,27.13
2023-05-10T08:52:44.962Z,27.11
2023-05-10T08:53:44.987Z,27.10
2023-05-10T08:54:44.997Z,27.11
2023-05-10T08:55:44.897Z,27.08
2023-05-10T08:56:44.878Z,27.07
2023-05-10T08:57:44.859Z,27.04
2023-05-10T08:58:44.996Z,27.03
2023-05-10T08:59:45.079Z,27.01
2023-05-10T09:00:45.024Z,27.03
2023-05-10T09:01:44.759Z,27.01
2023-05-10T09:02:44.764Z,26.96
2023-05-10T09:03:44.731Z,26.97
2023-05-10T09:04:44.821Z,26.94
2023-05-10T09:05:44.684Z,26.94
2023-05-10T09:06:44.660Z,26.93
2023-05-10T09:07:44.639Z,26.93
2023-05-10T09:08:44.622Z,26.93
2023-05-10T09:09:44.618Z,26.91
2023-05-10T09:10:45.014Z,26.90
2023-05-10T09:11:44.578Z,26.89
2023-05-10T09:12:44.536Z,26.89
2023-05-10T09:13:44.523Z,26.90
2023-05-10T09:14:45.109Z,26.86
2023-05-10T09:15:44.524Z,26.87
2023-05-10T09:16:44.540Z,26.87
2023-05-10T09:17:44.482Z,26.85
2023-05-10T09:18:44.414Z,26.85
2023-05-10T09:19:44.387Z,26.86
2023-05-10T09:20:44.510Z,26.85
2023-05-10T09:21:48.277Z,26.83
2023-05-10T09:22:44.318Z,26.82
2023-05-10T09:23:45.153Z,26.82
2023-05-10T09:24:44.269Z,26.82
2023-05-10T09:25:44.518Z,26.80
2023-05-10T09:26:44.229Z,26.83
2023-05-10T09:27:44.220Z,26.80
2023-05-10T09:28:44.190Z,26.80
2023-05-10T09:29:44.519Z,26.79
2023-05-10T09:30:44.205Z,26.80
2023-05-10T09:31:44.168Z,26.79
2023-05-10T09:32:44.857Z,26.76
2023-05-10T09:33:44.101Z,26.78
2023-05-10T09:34:44.512Z,26.79
2023-05-10T09:35:44.519Z,26.78
2023-05-10T09:36:44.059Z,26.79
2023-05-10T09:37:44.048Z,26.76
2023-05-10T09:38:44.540Z,26.76
2023-05-10T09:39:44.032Z,26.79
2023-05-10T09:40:44.005Z,26.76
2023-05-10T09:41:43.982Z,26.73
2023-05-10T09:42:43.965Z,26.75
2023-05-10T09:43:44.934Z,26.73
2023-05-10T09:44:43.926Z,26.75
2023-05-10T09:45:44.103Z,26.75
2023-05-10T09:46:43.919Z,26.73
2023-05-10T09:47:43.946Z,26.72
2023-05-10T09:48:43.842Z,26.72
2023-05-10T09:49:44.038Z,26.73
2023-05-10T09:50:43.807Z,26.72
2023-05-10T09:51:43.785Z,26.70
2023-05-10T09:52:43.785Z,26.73
2023-05-10T09:53:44.033Z,26.73
2023-05-10T09:54:44.336Z,26.69
2023-05-10T09:55:43.815Z,26.72
2023-05-10T09:56:45.037Z,26.73
2023-05-10T09:57:43.829Z,26.70
2023-05-10T09:58:43.886Z,26.75
2023-05-10T09:59:43.836Z,26.73
2023-05-10T10:00:44.030Z,26.76
2023-05-10T10:01:43.862Z,26.78
2023-05-10T10:02:43.954Z,26.79
2023-05-10T10:03:43.870Z,26.82
2023-05-10T10:04:43.895Z,26.82
2023-05-10T10:05:44.018Z,26.86
2023-05-10T10:06:43.833Z,26.87
2023-05-10T10:07:43.819Z,26.87
2023-05-10T10:08:43.804Z,26.87
2023-05-10T10:09:43.810Z,26.87
2023-05-10T10:10:44.024Z,26.87
2023-05-10T10:11:43.773Z,26.87
2023-05-10T10:12:43.780Z,26.85
2023-05-10T10:13:43.774Z,26.83
2023-05-10T10:14:43.799Z,26.83
2023-05-10T10:15:44.095Z,26.83
2023-05-10T10:16:55.693Z,26.80
2023-05-10T10:17:43.787Z,26.80
2023-05-10T10:18:44.094Z,26.79
2023-05-10T10:19:43.752Z,26.75
2023-05-10T10:20:44.072Z,26.79
2023-05-10T10:21:43.701Z,26.76
2023-05-10T10:22:43.701Z,26.73
2023-05-10T10:23:43.662Z,26.78
2023-05-10T10:24:43.692Z,26.76
2023-05-10T10:25:44.582Z,26.73
2023-05-10T10:26:43.634Z,26.73
2023-05-10T10:27:43.595Z,26.73
2023-05-10T10:28:43.739Z,26.69
2023-05-10T10:29:43.567Z,26.68
2023-05-10T10:30:44.064Z,26.70
2023-05-10T10:31:43.582Z,26.70
2023-05-10T10:32:43.546Z,26.69
2023-05-10T10:33:43.783Z,26.72
2023-05-10T10:34:43.485Z,26.76
2023-05-10T10:35:43.576Z,26.79
2023-05-10T10:36:44.484Z,26.80
2023-05-10T10:37:43.433Z,26.85
2023-05-10T10:38:43.411Z,26.89
2023-05-10T10:39:43.547Z,26.91
2023-05-10T10:40:43.397Z,26.93
2023-05-10T10:41:43.547Z,26.98
2023-05-10T10:42:43.351Z,27.01
2023-05-10T10:43:43.326Z,27.06
2023-05-10T10:44:43.307Z,27.08
2023-05-10T10:45:43.289Z,27.10
2023-05-10T10:46:43.595Z,27.13
2023-05-10T10:47:43.279Z,27.18
2023-05-10T10:48:43.291Z,27.17
2023-05-10T10:49:43.396Z,27.21
2023-05-10T10:50:43.371Z,27.23
2023-05-10T10:51:43.559Z,27.27
2023-05-10T10:52:43.530Z,27.28
2023-05-10T10:53:43.566Z,27.31
2023-05-10T10:54:43.564Z,27.31
2023-05-10T10:55:43.614Z,27.35
2023-05-10T10:56:43.654Z,27.41
2023-05-10T10:57:44.044Z,27.42
2023-05-10T10:58:43.734Z,27.44
2023-05-10T10:59:43.773Z,27.45
2023-05-10T11:00:43.840Z,27.48
2023-05-10T11:01:44.041Z,27.51
2023-05-10T11:02:43.892Z,27.52
2023-05-10T11:03:43.904Z,27.53
2023-05-10T11:04:44.078Z,27.58
2023-05-10T11:05:44.482Z,27.61
2023-05-10T11:06:43.998Z,27.63
2023-05-10T11:07:44.049Z,27.63
2023-05-10T11:08:44.041Z,27.66
2023-05-10T11:09:44.551Z,27.66
2023-05-10T11:10:44.112Z,27.69
2023-05-10T11:11:44.558Z,27.75
2023-05-10T11:12:44.114Z,27.76
2023-05-10T11:13:44.174Z,27.76
2023-05-10T11:14:44.152Z,27.76
2023-05-10T11:15:44.193Z,27.76
2023-05-10T11:16:44.591Z,27.73
2023-05-10T11:17:44.321Z,27.75
2023-05-10T11:18:44.335Z,27.75
2023-05-10T11:19:44.574Z,27.75
2023-05-10T11:20:44.315Z,27.72
2023-05-10T11:21:44.347Z,27.73
2023-05-10T11:22:44.372Z,27.73
2023-05-10T11:23:44.456Z,27.73
2023-05-10T11:24:44.444Z,27.73
2023-05-10T11:25:44.496Z,27.72
2023-05-10T11:26:44.515Z,27.72
2023-05-10T11:27:44.552Z,27.72
2023-05-10T11:28:44.593Z,27.71
2023-05-10T11:29:44.620Z,27.69
2023-05-10T11:30:44.723Z,27.71
2023-05-10T11:31:45.080Z,27.69
2023-05-10T11:32:44.778Z,27.69
2023-05-10T11:33:44.785Z,27.66
2023-05-10T11:34:44.817Z,27.69
2023-05-10T11:35:44.852Z,27.66
2023-05-10T11:36:44.913Z,27.65
2023-05-10T11:37:44.939Z,27.65
2023-05-10T11:38:44.986Z,27.65
2023-05-10T11:39:45.045Z,27.63
2023-05-10T11:40:45.073Z,27.63
2023-05-10T11:41:45.102Z,27.62
2023-05-10T11:42:45.560Z,27.62
2023-05-10T11:43:45.195Z,27.61
2023-05-10T11:44:46.159Z,27.59
2023-05-10T11:45:45.285Z,27.61
2023-05-10T11:46:46.405Z,27.59
2023-05-10T11:47:45.407Z,27.59
2023-05-10T11:48:45.426Z,27.59
2023-05-10T11:49:45.510Z,27.59
2023-05-10T11:50:45.520Z,27.56
2023-05-10T11:51:45.571Z,27.56
2023-05-10T11:52:45.608Z,27.55
2023-05-10T11:53:45.654Z,27.55
2023-05-10T11:54:45.702Z,27.51
2023-05-10T11:55:45.785Z,27.48
2023-05-10T11:56:45.813Z,27.45
2023-05-10T11:57:45.857Z,27.46
2023-05-10T11:58:46.092Z,27.44
2023-05-10T11:59:45.910Z,27.45
2023-05-10T12:00:45.944Z,27.44
2023-05-10T12:01:46.068Z,27.44
2023-05-10T12:02:46.058Z,27.44
2023-05-10T12:03:46.357Z,27.42
2023-05-10T12:04:46.136Z,27.44
2023-05-10T12:05:46.159Z,27.42
2023-05-10T12:06:46.204Z,27.42
2023-05-10T12:07:46.209Z,27.41
2023-05-10T12:08:46.261Z,27.41
2023-05-10T12:09:46.270Z,27.38
2023-05-10T12:10:46.327Z,27.38
2023-05-10T12:11:46.404Z,27.35
2023-05-10T12:12:46.384Z,27.40
2023-05-10T12:13:46.407Z,27.37
2023-05-10T12:14:49.668Z,27.35
2023-05-10T12:15:46.466Z,27.34
2023-05-10T12:16:46.538Z,27.34
2023-05-10T12:17:46.617Z,27.33
2023-05-10T12:18:46.436Z,27.33
2023-05-10T12:19:46.383Z,27.30
2023-05-10T12:20:46.366Z,27.27
2023-05-10T12:21:46.364Z,27.30
2023-05-10T12:22:46.337Z,27.28
2023-05-10T12:23:46.308Z,27.25
2023-05-10T12:24:47.288Z,27.24
2023-05-10T12:25:46.272Z,27.24
2023-05-10T12:26:46.585Z,27.24
2023-05-10T12:27:46.272Z,27.21
2023-05-10T12:28:46.246Z,27.23
2023-05-10T12:29:46.230Z,27.20
2023-05-10T12:30:46.214Z,27.20
2023-05-10T12:31:46.233Z,27.18
2023-05-10T12:32:46.224Z,27.18
2023-05-10T12:33:46.182Z,27.20
2023-05-10T12:34:46.146Z,27.18
2023-05-10T12:35:46.174Z,27.17
2023-05-10T12:36:46.100Z,27.17
2023-05-10T12:37:46.105Z,27.15
2023-05-10T12:38:46.111Z,27.15
2023-05-10T12:39:46.053Z,27.15
2023-05-10T12:40:46.084Z,27.13
2023-05-10T12:41:46.037Z,27.11
2023-05-10T12:42:46.078Z,27.11
2023-05-10T12:43:46.107Z,27.11
2023-05-10T12:44:45.969Z,27.08
2023-05-10T12:45:45.982Z,27.10
2023-05-10T12:46:45.928Z,27.07
2023-05-10T12:47:46.045Z,27.07
2023-05-10T12:48:45.900Z,27.07
2023-05-10T12:49:45.872Z,27.08
2023-05-10T12:50:45.864Z,27.06
2023-05-10T12:51:45.845Z,27.06
2023-05-10T12:52:45.829Z,27.04
2023-05-10T12:54:44.791Z,27.07